Time;durP1;ratioP1;P1;durP2;ratioP2;P2;SDS_P1;SDS_P2;PMS_P1;PMS_P2;Temp;Humidity;BMP_temperature;BMP_pressure;BME280_temperature;BME280_humidity;BME280_pressure;Samples;Min_cycle;Max_cycle;Signal;HPM_P1;HPM_P2
2022/01/29 00:04:35;;;;;;;54.90;24.38;;;;;;;5.81;100.00;102428.22;10429341;28;20471;-75
2022/01/29 00:09:35;;;;;;;52.63;23.50;;;;;;;5.84;100.00;102427.81;10422035;28;20473;-75
2022/01/29 00:14:36;;;;;;;54.65;24.08;;;;;;;5.85;100.00;102410.41;10373796;28;20383;-74
2022/01/29 00:19:40;;;;;;;50.00;23.05;;;;;;;5.89;100.00;102420.97;10418692;28;20117;-75
2022/01/29 00:24:43;;;;;;;45.15;22.58;;;;;;;5.89;100.00;102389.03;10413088;28;20026;-74
2022/01/29 00:29:44;;;;;;;55.88;26.23;;;;;;;5.92;100.00;102396.84;10412228;28;20458;-73
2022/01/29 00:34:44;;;;;;;55.47;25.27;;;;;;;5.91;100.00;102399.75;10412455;28;20026;-74
2022/01/29 00:39:44;;;;;;;55.30;26.15;;;;;;;5.89;100.00;102380.84;10437455;28;20046;-73
2022/01/29 00:44:45;;;;;;;50.25;26.45;;;;;;;5.86;100.00;102387.50;10437160;28;20099;-73
2022/01/29 00:49:45;;;;;;;56.08;28.60;;;;;;;5.86;100.00;102368.38;10379240;28;20095;-73
2022/01/29 00:54:46;;;;;;;68.57;27.92;;;;;;;5.89;100.00;102371.75;10378776;28;20041;-74
2022/01/29 00:59:47;;;;;;;61.50;29.83;;;;;;;5.82;100.00;102344.34;10379083;28;20073;-74
2022/01/29 01:04:47;;;;;;;65.70;32.80;;;;;;;5.78;100.00;102338.38;10401032;28;20124;-74
2022/01/29 01:09:47;;;;;;;68.35;33.22;;;;;;;5.80;100.00;102322.66;10403378;28;20056;-74
2022/01/29 01:14:48;;;;;;;64.43;32.33;;;;;;;5.72;100.00;102300.88;10436375;28;20022;-73
2022/01/29 01:19:48;;;;;;;64.43;32.42;;;;;;;5.72;100.00;102287.22;10403530;28;20133;-74
2022/01/29 01:24:49;;;;;;;58.88;32.03;;;;;;;5.74;100.00;102285.13;10435602;28;20037;-73
2022/01/29 01:29:49;;;;;;;65.30;34.95;;;;;;;5.80;100.00;102287.13;10410164;28;20061;-72
2022/01/29 01:34:53;;;;;;;59.70;33.05;;;;;;;5.83;100.00;102285.91;10412443;28;20469;-71
2022/01/29 01:39:53;;;;;;;64.60;31.63;;;;;;;5.86;100.00;102280.91;10436049;28;20038;-72
2022/01/29 01:44:55;;;;;;;62.10;32.47;;;;;;;5.92;100.00;102262.91;10435094;28;20036;-71
2022/01/29 01:49:55;;;;;;;61.28;31.25;;;;;;;5.95;100.00;102246.13;10418451;28;20030;-72
2022/01/29 01:54:56;;;;;;;56.08;30.88;;;;;;;5.88;100.00;102225.22;10434014;28;20047;-73
2022/01/29 01:59:57;;;;;;;58.95;31.33;;;;;;;5.99;100.00;102222.84;10432536;28;20049;-71
2022/01/29 02:04:57;;;;;;;62.33;31.20;;;;;;;6.06;100.00;102209.28;10383504;28;20152;-71
2022/01/29 02:09:57;;;;;;;61.90;30.17;;;;;;;6.12;100.00;102196.72;10417651;28;20033;-71
2022/01/29 02:15:02;;;;;;;60.55;28.63;;;;;;;6.17;100.00;102210.69;10417572;28;20056;-72
2022/01/29 02:20:04;;;;;;;65.07;30.52;;;;;;;6.21;100.00;102211.97;10401453;28;20033;-72
2022/01/29 02:25:04;;;;;;;68.15;28.38;;;;;;;6.25;100.00;102203.19;10400160;28;20500;-71
2022/01/29 02:30:05;;;;;;;55.35;29.25;;;;;;;6.23;100.00;102167.00;10415415;28;20038;-71
2022/01/29 02:35:06;;;;;;;57.15;27.92;;;;;;;6.41;100.00;102199.38;10398481;28;20030;-70
2022/01/29 02:40:07;;;;;;;51.28;28.02;;;;;;;6.47;100.00;102181.34;10432888;28;20045;-71
2022/01/29 02:45:08;;;;;;;62.97;27.92;;;;;;;6.58;100.00;102182.72;10399998;28;20029;-71
2022/01/29 02:50:08;;;;;;;54.60;25.33;;;;;;;6.61;100.00;102168.63;10383449;28;20025;-71
2022/01/29 02:55:09;;;;;;;55.53;27.60;;;;;;;6.67;100.00;102146.78;10382616;28;20535;-71
2022/01/29 03:00:10;;;;;;;59.25;25.55;;;;;;;6.74;100.00;102163.28;10382972;28;20065;-70
2022/01/29 03:05:10;;;;;;;55.42;24.55;;;;;;;6.79;100.00;102149.84;10390186;28;20030;-71
2022/01/29 03:10:11;;;;;;;53.13;24.08;;;;;;;6.53;100.00;102103.97;10390747;28;20056;-71
2022/01/29 03:15:12;;;;;;;47.85;23.38;;;;;;;6.90;100.00;102148.44;10374656;28;20096;-71
2022/01/29 03:20:13;;;;;;;48.53;22.52;;;;;;;6.88;100.00;102134.09;10374061;28;20085;-72
2022/01/29 03:25:13;;;;;;;51.08;24.77;;;;;;;6.90;100.00;102123.81;10373222;28;20056;-72
2022/01/29 03:30:14;;;;;;;45.80;22.38;;;;;;;6.92;100.00;102108.03;10393548;28;20063;-71
2022/01/29 03:35:16;;;;;;;53.67;23.73;;;;;;;6.90;100.00;102103.81;10431919;28;20033;-72
2022/01/29 03:40:16;;;;;;;49.75;23.92;;;;;;;6.70;100.00;102068.06;10398065;28;20041;-72
2022/01/29 03:45:19;;;;;;;53.03;26.17;;;;;;;6.93;100.00;102093.31;10430919;28;20036;-72
2022/01/29 03:50:19;;;;;;;56.05;24.02;;;;;;;6.99;100.00;102089.78;10414026;28;20043;-71
2022/01/29 03:55:20;;;;;;;52.63;24.83;;;;;;;6.95;100.00;102066.56;10430986;28;20030;-72
2022/01/29 04:00:20;;;;;;;51.58;23.40;;;;;;;6.97;100.00;102069.97;10370038;28;20509;-72
2022/01/29 04:05:21;;;;;;;55.35;23.95;;;;;;;7.01;100.00;102068.50;10375717;28;20078;-72
2022/01/29 04:10:23;;;;;;;49.83;22.25;;;;;;;7.06;100.00;102066.00;10387425;28;20080;-72
2022/01/29 04:15:24;;;;;;;41.67;20.95;;;;;;;7.05;100.00;102053.38;10404845;28;20056;-72
2022/01/29 04:20:24;;;;;;;48.75;23.17;;;;;;;7.08;100.00;102061.16;10371729;28;20045;-71
2022/01/29 04:25:25;;;;;;;49.65;24.42;;;;;;;7.11;100.00;102053.59;10355409;28;20034;-71
2022/01/29 04:30:29;;;;;;;43.60;21.98;;;;;;;7.11;100.00;102042.63;10382230;28;20037;-72
2022/01/29 04:35:30;;;;;;;45.38;22.38;;;;;;;7.19;100.00;102039.72;10412700;28;20418;-72
2022/01/29 04:40:30;;;;;;;38.08;22.00;;;;;;;7.16;100.00;102024.56;10412681;28;20034;-71
2022/01/29 04:45:31;;;;;;;48.47;21.67;;;;;;;7.15;100.00;102011.06;10396231;28;20038;-73
2022/01/29 04:50:32;;;;;;;42.60;20.17;;;;;;;7.26;100.00;102022.28;10395756;28;20068;-72
2022/01/29 04:55:32;;;;;;;40.28;19.88;;;;;;;7.31;100.00;102010.72;10379273;28;20128;-72
2022/01/29 05:00:35;;;;;;;47.72;21.25;;;;;;;7.30;100.00;102014.50;10389015;28;20057;-72
2022/01/29 05:05:35;;;;;;;42.80;21.65;;;;;;;7.32;100.00;102006.94;10405526;28;20049;-72
2022/01/29 05:10:36;;;;;;;43.35;20.58;;;;;;;7.30;100.00;101992.59;10411291;28;20049;-73
2022/01/29 05:16:06;;;;;;;35.30;18.98;;;;;;;7.27;100.00;101996.56;10412349;28;20038;-73
2022/01/29 05:31:44;;;;;;;36.22;20.05;;;;;;;7.31;100.00;101988.78;10429335;28;20030;-73
2022/01/29 05:36:45;;;;;;;35.20;18.90;;;;;;;7.44;100.00;101994.34;10376445;28;20029;-72
2022/01/29 05:41:45;;;;;;;38.95;18.55;;;;;;;7.43;100.00;101981.66;10360771;28;20037;-73
2022/01/29 05:46:46;;;;;;;35.50;17.48;;;;;;;7.52;100.00;101985.06;10361065;28;20052;-73
2022/01/29 05:51:46;;;;;;;33.47;17.67;;;;;;;7.54;100.00;101982.13;10380743;28;20026;-72
2022/01/29 05:56:47;;;;;;;28.58;16.38;;;;;;;7.56;100.00;101972.63;10434564;28;20040;-73
2022/01/29 06:01:47;;;;;;;28.42;16.63;;;;;;;7.61;100.00;101974.78;10434705;28;20050;-74
2022/01/29 06:06:48;;;;;;;36.50;17.50;;;;;;;7.66;100.00;101955.78;10416978;28;20045;-73
2022/01/29 06:11:48;;;;;;;50.15;17.88;;;;;;;7.66;100.00;101958.53;10433617;28;20389;-73
2022/01/29 06:16:49;;;;;;;42.60;17.23;;;;;;;7.62;100.00;101943.56;10434906;28;20033;-73
2022/01/29 06:21:49;;;;;;;30.55;16.88;;;;;;;7.64;100.00;101942.28;10433176;28;20036;-74
2022/01/29 06:26:50;;;;;;;32.65;15.63;;;;;;;7.64;100.00;101933.22;10417347;28;20029;-73
2022/01/29 06:31:50;;;;;;;39.70;16.90;;;;;;;7.68;100.00;101918.06;10434806;28;20040;-73
2022/01/29 06:36:51;;;;;;;29.60;16.05;;;;;;;7.69;100.00;101930.72;10409690;28;20033;-73
2022/01/29 06:41:51;;;;;;;30.95;16.48;;;;;;;7.66;100.00;101917.41;10391368;28;20050;-76
2022/01/29 06:46:52;;;;;;;33.95;17.10;;;;;;;7.70;100.00;101898.66;10375026;28;20030;-73
2022/01/29 06:51:53;;;;;;;29.15;15.63;;;;;;;7.66;100.00;101877.16;10392517;28;20497;-73
2022/01/29 06:56:54;;;;;;;30.77;16.60;;;;;;;7.70;100.00;101885.78;10375293;28;20042;-73
2022/01/29 07:01:54;;;;;;;33.53;16.17;;;;;;;7.76;100.00;101898.66;10400974;28;20049;-72
2022/01/29 07:06:55;;;;;;;30.50;14.57;;;;;;;7.76;100.00;101889.59;10414988;28;20030;-73
2022/01/29 07:11:59;;;;;;;28.20;14.93;;;;;;;7.77;100.00;101886.66;10415019;28;20022;-73
2022/01/29 07:17:00;;;;;;;22.35;14.32;;;;;;;7.80;100.00;101899.94;10415703;28;20033;-73
2022/01/29 07:22:00;;;;;;;25.85;13.90;;;;;;;7.80;100.00;101902.66;10431113;28;20032;-72
2022/01/29 07:27:01;;;;;;;24.33;13.73;;;;;;;7.82;100.00;101907.94;10432705;28;20029;-75
2022/01/29 07:32:01;;;;;;;31.08;14.18;;;;;;;7.84;100.00;101900.34;10383884;28;20025;-72
2022/01/29 07:37:02;;;;;;;27.05;13.40;;;;;;;7.80;100.00;101886.22;10390380;28;20034;-74
2022/01/29 07:42:03;;;;;;;25.00;11.93;;;;;;;7.81;100.00;101882.44;10389830;28;20407;-72
2022/01/29 07:47:04;;;;;;;19.38;11.68;;;;;;;7.82;100.00;101889.59;10390461;28;20030;-73
2022/01/29 07:52:05;;;;;;;26.27;13.40;;;;;;;7.45;100.00;101820.66;10390373;28;20030;-73
2022/01/29 07:57:05;;;;;;;26.20;13.90;;;;;;;7.82;100.00;101881.38;10376694;28;20113;-71
2022/01/29 08:02:06;;;;;;;23.50;12.63;;;;;;;7.78;100.00;101882.84;10429928;28;20049;-72
2022/01/29 08:07:06;;;;;;;23.08;12.50;;;;;;;7.71;100.00;101873.78;10431454;28;20076;-73
2022/01/29 08:12:07;;;;;;;19.95;12.02;;;;;;;7.63;100.00;101871.25;10413151;28;20029;-72
2022/01/29 08:17:08;;;;;;;23.65;12.93;;;;;;;7.62;100.00;101869.56;10412620;28;20029;-72
2022/01/29 08:22:08;;;;;;;24.08;13.43;;;;;;;7.54;100.00;101856.91;10429241;28;20029;-73
2022/01/29 08:27:09;;;;;;;26.02;13.55;;;;;;;7.58;100.00;101857.34;10414212;28;20122;-73
2022/01/29 08:32:09;;;;;;;29.65;14.35;;;;;;;7.57;100.00;101833.75;10370958;28;20082;-71
2022/01/29 08:37:10;;;;;;;26.98;14.85;;;;;;;7.56;100.00;101823.81;10373759;28;20049;-73
2022/01/29 08:42:10;;;;;;;28.83;13.55;;;;;;;7.59;100.00;101820.66;10370492;28;20034;-73
2022/01/29 08:47:11;;;;;;;36.63;15.75;;;;;;;7.64;100.00;101823.59;10371489;28;20045;-72
2022/01/29 08:52:11;;;;;;;29.52;14.05;;;;;;;7.67;100.00;101812.22;10387843;28;20029;-72
2022/01/29 08:57:11;;;;;;;28.08;15.05;;;;;;;7.76;100.00;101807.38;10391836;28;20034;-73
2022/01/29 09:02:12;;;;;;;28.27;14.00;;;;;;;7.83;100.00;101795.34;10394991;28;20049;-72
2022/01/29 09:07:12;;;;;;;20.60;12.07;;;;;;;7.93;100.00;101772.94;10419131;28;20049;-72
2022/01/29 09:12:13;;;;;;;21.02;10.45;;;;;;;8.02;100.00;101779.03;10378584;28;20033;-73
2022/01/29 09:17:14;;;;;;;17.05;10.43;;;;;;;7.86;100.00;101711.81;10378636;28;20038;-74
2022/01/29 09:22:14;;;;;;;17.88;10.25;;;;;;;8.18;100.00;101756.63;10416894;28;20033;-73
2022/01/29 09:27:15;;;;;;;13.25;8.90;;;;;;;8.29;100.00;101744.97;10401448;28;20084;-73
2022/01/29 09:32:15;;;;;;;16.27;7.95;;;;;;;8.35;100.00;101734.19;10414741;28;20025;-72
2022/01/29 09:37:16;;;;;;;18.67;8.23;;;;;;;8.37;100.00;101707.38;10432850;28;20053;-73
2022/01/29 09:42:16;;;;;;;16.30;6.68;;;;;;;8.46;100.00;101689.63;10401307;28;20028;-73
2022/01/29 09:47:17;;;;;;;12.48;6.38;;;;;;;8.55;100.00;101681.97;10399931;28;20032;-72
2022/01/29 09:52:18;;;;;;;9.88;5.35;;;;;;;8.61;100.00;101676.44;10416735;28;20087;-74
2022/01/29 09:57:18;;;;;;;11.68;4.55;;;;;;;8.67;100.00;101653.59;10416713;28;20033;-70
2022/01/29 10:02:19;;;;;;;9.07;4.70;;;;;;;8.82;100.00;101657.91;10434901;28;20045;-72
2022/01/29 10:07:25;;;;;;;10.20;4.85;;;;;;;8.84;100.00;101631.06;10432979;28;20106;-73
2022/01/29 10:12:27;;;;;;;7.93;4.38;;;;;;;8.97;100.00;101617.25;10434698;28;20040;-72
2022/01/29 10:17:38;;;;;;;8.20;3.90;;;;;;;9.00;100.00;101614.03;10417462;28;20060;-71
2022/01/29 10:22:39;;;;;;;7.85;4.65;;;;;;;9.03;100.00;101599.00;10434885;28;20037;-73
2022/01/29 10:27:39;;;;;;;8.13;3.58;;;;;;;9.11;100.00;101614.34;10417438;28;20041;-73
2022/01/29 10:32:40;;;;;;;9.85;3.85;;;;;;;9.04;100.00;101582.28;10401062;28;20030;-73
2022/01/29 10:37:40;;;;;;;8.77;3.53;;;;;;;9.09;100.00;101593.47;10432548;28;20484;-74
2022/01/29 10:42:41;;;;;;;10.30;4.45;;;;;;;9.15;100.00;101604.59;10433934;28;20096;-72
2022/01/29 10:47:55;;;;;;;11.68;3.20;;;;;;;9.18;100.00;101606.91;10439326;28;20052;-71
2022/01/29 10:52:56;;;;;;;12.55;3.60;;;;;;;9.17;100.00;101614.28;10439816;28;20029;-76
2022/01/29 10:57:56;;;;;;;10.23;3.50;;;;;;;9.20;100.00;101618.47;10456763;28;20079;-73
2022/01/29 11:03:00;;;;;;;8.07;3.20;;;;;;;9.06;100.00;101607.63;10456964;28;20407;-71
2022/01/29 11:08:01;;;;;;;12.50;4.30;;;;;;;9.09;100.00;101607.19;10414291;28;20057;-73
2022/01/29 11:13:02;;;;;;;7.80;2.72;;;;;;;9.08;100.00;101583.53;10454787;28;20053;-75
2022/01/29 11:18:03;;;;;;;11.43;2.50;;;;;;;9.12;100.00;101583.09;10427866;28;20044;-73
2022/01/29 11:23:03;;;;;;;6.30;2.20;;;;;;;9.18;100.00;101576.69;10442828;28;20033;-73
2022/01/29 11:28:14;;;;;;;9.70;2.30;;;;;;;9.18;100.00;101560.19;10427371;28;20059;-72
2022/01/29 11:33:15;;;;;;;11.55;2.63;;;;;;;9.20;100.00;101542.41;10440763;28;20040;-73
2022/01/29 11:38:27;;;;;;;10.85;2.20;;;;;;;9.33;100.00;101557.06;10435132;28;20037;-74
2022/01/29 11:43:29;;;;;;;11.63;2.80;;;;;;;9.35;100.00;101544.75;10410992;28;20026;-73
2022/01/29 11:48:38;;;;;;;10.05;2.58;;;;;;;9.32;100.00;101523.22;10425391;28;20029;-73
2022/01/29 11:53:45;;;;;;;9.43;2.22;;;;;;;9.34;100.00;101521.09;10428503;28;20444;-75
2022/01/29 11:58:45;;;;;;;7.40;1.92;;;;;;;9.39;100.00;101528.66;10425152;28;20037;-73
2022/01/29 12:03:47;;;;;;;8.68;2.70;;;;;;;9.43;100.00;101503.22;10429280;28;20069;-74
2022/01/29 12:09:02;;;;;;;8.05;1.95;;;;;;;9.42;100.00;101512.53;10467354;28;20033;-72
2022/01/29 12:14:15;;;;;;;8.77;2.00;;;;;;;9.50;100.00;101492.97;10467559;28;20120;-73
2022/01/29 12:19:45;;;;;;;4.45;2.20;;;;;;;9.56;100.00;101479.38;10429127;28;20439;-73
2022/01/29 12:24:53;;;;;;;10.25;2.13;;;;;;;9.66;100.00;101463.16;10412450;28;20038;-73
2022/01/29 12:29:54;;;;;;;8.80;2.70;;;;;;;9.61;100.00;101427.28;10408653;28;20037;-74
2022/01/29 12:34:54;;;;;;;9.63;1.67;;;;;;;9.79;100.00;101429.97;10408241;28;20025;-75
2022/01/29 12:40:18;;;;;;;6.18;1.65;;;;;;;9.64;100.00;101405.66;10459030;28;20025;-78
2022/01/29 12:45:20;;;;;;;12.20;1.67;;;;;;;9.79;100.00;101396.97;10434424;28;20037;-74
2022/01/29 12:50:21;;;;;;;4.63;1.45;;;;;;;9.81;100.00;101411.31;10433001;28;20029;-74
2022/01/29 12:55:21;;;;;;;8.88;1.75;;;;;;;9.96;100.00;101401.78;10468599;28;20429;-75
2022/01/29 13:00:23;;;;;;;7.13;1.90;;;;;;;10.05;100.00;101389.34;10469891;28;20049;-75
2022/01/29 13:05:23;;;;;;;14.68;2.15;;;;;;;9.96;100.00;101379.75;10470187;28;20037;-74
2022/01/29 13:10:23;;;;;;;7.70;1.55;;;;;;;10.14;100.00;101390.66;10420240;28;20436;-74
2022/01/29 13:15:33;;;;;;;8.38;1.70;;;;;;;10.18;100.00;101391.03;10411972;28;20385;-74
2022/01/29 13:20:34;;;;;;;6.18;1.83;;;;;;;10.27;100.00;101379.44;10411987;28;20500;-75
2022/01/29 13:25:37;;;;;;;7.97;1.80;;;;;;;10.00;100.00;101332.28;10427770;28;20041;-75
2022/01/29 13:30:38;;;;;;;5.72;1.42;;;;;;;10.30;100.00;101342.38;10428498;28;20044;-74
2022/01/29 13:35:44;;;;;;;8.68;1.60;;;;;;;10.32;100.00;101311.84;10384252;28;20401;-75
2022/01/29 13:40:54;;;;;;;5.63;1.80;;;;;;;10.40;100.00;101326.06;10369960;28;20069;-76
2022/01/29 13:45:57;;;;;;;6.13;1.27;;;;;;;10.59;100.00;101288.19;10432098;28;20029;-76
2022/01/29 13:50:59;;;;;;;8.68;1.80;;;;;;;10.68;100.00;101307.91;10421053;28;20085;-75
2022/01/29 13:56:02;;;;;;;6.80;1.77;;;;;;;10.56;100.00;101282.34;10392882;28;20125;-75
2022/01/29 14:01:03;;;;;;;6.82;1.40;;;;;;;10.80;100.00;101285.84;10394092;28;20145;-75
2022/01/29 14:06:32;;;;;;;11.38;1.65;;;;;;;10.72;100.00;101289.00;10417157;28;20412;-76
2022/01/29 14:11:54;;;;;;;8.30;1.50;;;;;;;10.67;100.00;101287.81;10462139;28;20028;-74
2022/01/29 14:16:55;;;;;;;8.27;1.45;;;;;;;10.55;100.00;101272.41;10457149;28;20052;-76
2022/01/29 14:21:57;;;;;;;5.18;1.40;;;;;;;10.53;100.00;101264.41;10451560;28;20075;-76
2022/01/29 14:26:58;;;;;;;6.63;1.63;;;;;;;10.59;100.00;101288.19;10470488;28;20033;-75
2022/01/29 14:31:58;;;;;;;5.85;1.40;;;;;;;10.58;100.00;101300.28;10457795;28;20055;-75
2022/01/29 14:36:59;;;;;;;8.93;2.20;;;;;;;10.62;100.00;101295.97;10457873;28;20399;-75
2022/01/29 14:42:02;;;;;;;7.70;1.63;;;;;;;10.65;100.00;101303.75;10460609;28;20032;-76
2022/01/29 14:47:04;;;;;;;5.47;1.40;;;;;;;10.70;100.00;101281.81;10438843;28;20029;-78
2022/01/29 14:52:05;;;;;;;14.70;1.70;;;;;;;10.75;100.00;101296.75;10416510;28;20056;-78
2022/01/29 14:57:06;;;;;;;8.48;1.20;;;;;;;10.82;100.00;101305.72;10434847;28;20044;-78
2022/01/29 15:02:06;;;;;;;8.90;1.73;;;;;;;10.84;100.00;101307.16;10450221;28;20404;-76
2022/01/29 15:07:07;;;;;;;8.32;1.60;;;;;;;10.60;100.00;101269.75;10443545;28;20091;-79
2022/01/29 15:12:08;;;;;;;10.05;1.98;;;;;;;10.76;100.00;101290.19;10470517;28;20033;-77
2022/01/29 15:17:08;;;;;;;10.90;2.35;;;;;;;10.79;100.00;101306.19;10451977;28;20045;-77
2022/01/29 15:22:09;;;;;;;11.60;1.85;;;;;;;10.68;100.00;101316.19;10434347;28;20031;-80
2022/01/29 15:27:09;;;;;;;18.58;3.50;;;;;;;10.53;100.00;101329.66;10435919;28;20059;-79
2022/01/29 15:32:10;;;;;;;16.58;3.30;;;;;;;10.38;100.00;101338.41;10435287;28;20037;-79
2022/01/29 15:37:10;;;;;;;12.57;3.15;;;;;;;10.36;100.00;101333.13;10448664;28;20057;-80
2022/01/29 15:42:11;;;;;;;17.65;2.97;;;;;;;10.26;100.00;101391.50;10429847;28;20057;-77
2022/01/29 15:47:11;;;;;;;19.20;2.92;;;;;;;10.18;100.00;101369.03;10458750;28;20025;-76
2022/01/29 15:52:12;;;;;;;20.98;3.60;;;;;;;10.16;100.00;101366.50;10449510;28;20033;-79
2022/01/29 15:57:12;;;;;;;17.98;2.97;;;;;;;10.09;100.00;101405.16;10468084;28;20068;-76
2022/01/29 16:02:16;;;;;;;22.33;5.82;;;;;;;9.99;100.00;101362.81;10430199;28;20041;-75
2022/01/29 16:07:17;;;;;;;26.98;5.28;;;;;;;9.86;100.00;101381.22;10446958;28;20076;-79
2022/01/29 16:12:17;;;;;;;19.35;3.55;;;;;;;9.83;100.00;101386.34;10462733;28;20044;-78
2022/01/29 16:17:18;;;;;;;17.52;4.28;;;;;;;9.75;100.00;101390.25;10431029;28;20094;-74
2022/01/29 16:22:18;;;;;;;24.42;5.75;;;;;;;9.70;100.00;101387.41;10415141;28;20021;-78
2022/01/29 16:27:20;;;;;;;19.05;3.85;;;;;;;9.61;100.00;101402.53;10414836;28;20052;-76
2022/01/29 16:32:20;;;;;;;23.00;5.35;;;;;;;9.61;100.00;101422.63;10432285;28;20043;-74
2022/01/29 16:37:21;;;;;;;24.27;4.97;;;;;;;9.48;100.00;101418.16;10464423;28;20025;-75
2022/01/29 16:42:21;;;;;;;22.45;3.88;;;;;;;9.43;100.00;101475.75;10465076;28;20029;-80
2022/01/29 16:47:22;;;;;;;26.40;5.15;;;;;;;9.35;100.00;101478.81;10448224;28;20036;-76
2022/01/29 16:52:23;;;;;;;26.58;5.28;;;;;;;9.27;100.00;101481.88;10450050;28;20033;-75
2022/01/29 16:57:23;;;;;;;33.78;6.25;;;;;;;9.15;100.00;101490.03;10432206;28;20108;-74
2022/01/29 17:02:24;;;;;;;28.02;5.03;;;;;;;8.96;100.00;101519.41;10431908;28;20465;-74
2022/01/29 17:07:24;;;;;;;34.05;6.90;;;;;;;8.82;100.00;101526.13;10447958;28;20049;-74
2022/01/29 17:12:26;;;;;;;42.33;9.82;;;;;;;8.73;100.00;101549.44;10452375;28;20055;-73
2022/01/29 17:17:26;;;;;;;28.67;6.95;;;;;;;8.66;100.00;101566.81;10453623;28;20037;-73
2022/01/29 17:22:27;;;;;;;38.88;7.43;;;;;;;8.54;100.00;101571.34;10443989;28;20025;-73
2022/01/29 17:27:27;;;;;;;36.92;7.13;;;;;;;8.41;100.00;101587.91;10460534;28;20033;-70
2022/01/29 17:32:28;;;;;;;34.72;5.70;;;;;;;8.31;100.00;101593.88;10443526;28;20037;-74
2022/01/29 17:37:28;;;;;;;32.22;7.05;;;;;;;8.20;100.00;101600.88;10443546;28;20503;-74
2022/01/29 17:42:29;;;;;;;34.13;7.75;;;;;;;8.03;100.00;101613.44;10443194;28;20025;-75
2022/01/29 17:47:29;;;;;;;35.13;6.35;;;;;;;7.97;100.00;101633.53;10442977;28;20029;-74
2022/01/29 17:52:30;;;;;;;32.72;7.35;;;;;;;8.05;100.00;101638.75;10443020;28;20040;-77
2022/01/29 17:57:30;;;;;;;28.83;5.65;;;;;;;7.91;100.00;101624.25;10442699;28;20056;-75
2022/01/29 18:02:31;;;;;;;37.25;7.00;;;;;;;7.73;100.00;101629.59;10442402;28;20114;-74
2022/01/29 18:07:31;;;;;;;32.38;6.40;;;;;;;7.91;100.00;101635.22;10442279;28;20033;-75
2022/01/29 18:12:32;;;;;;;28.73;5.60;;;;;;;7.87;100.00;101650.44;10425007;28;20021;-74
2022/01/29 18:17:32;;;;;;;27.73;6.15;;;;;;;7.96;100.00;101664.72;10441474;28;20457;-73
2022/01/29 18:22:33;;;;;;;30.58;5.25;;;;;;;8.01;100.00;101692.34;10441045;28;20048;-73
2022/01/29 18:27:33;;;;;;;28.75;5.13;;;;;;;8.03;100.00;101692.97;10441808;28;20041;-76
2022/01/29 18:32:34;;;;;;;23.92;5.18;;;;;;;7.93;100.00;101711.78;10440939;28;20032;-72
2022/01/29 18:37:34;;;;;;;15.13;3.15;;;;;;;7.45;100.00;101694.63;10441072;28;20037;-77
2022/01/29 18:42:35;;;;;;;22.88;4.65;;;;;;;7.31;100.00;101692.13;10441062;28;20027;-75
2022/01/29 18:47:35;;;;;;;28.15;6.97;;;;;;;6.96;100.00;101723.28;10440916;28;20041;-73
2022/01/29 18:52:36;;;;;;;40.55;6.95;;;;;;;6.57;100.00;101741.31;10440488;28;20031;-74
2022/01/29 18:57:37;;;;;;;36.40;6.93;;;;;;;6.47;100.00;101749.13;10379281;28;20041;-73
2022/01/29 19:02:37;;;;;;;32.30;7.38;;;;;;;6.35;100.00;101745.28;10359615;28;20088;-73
2022/01/29 19:07:42;;;;;;;27.73;5.63;;;;;;;6.39;100.00;101771.19;10389674;28;20061;-73
2022/01/29 19:12:44;;;;;;;27.77;4.75;;;;;;;6.19;100.00;101780.13;10398785;28;20033;-72
2022/01/29 19:17:44;;;;;;;25.65;3.90;;;;;;;6.07;100.00;101754.41;10372977;28;20029;-72
2022/01/29 19:22:45;;;;;;;17.58;3.65;;;;;;;5.94;100.00;101762.53;10397324;28;20495;-71
2022/01/29 19:27:46;;;;;;;15.98;2.97;;;;;;;5.92;100.00;101778.28;10377902;28;20067;-71
2022/01/29 19:32:46;;;;;;;24.88;3.90;;;;;;;5.83;100.00;101783.91;10386290;28;20034;-72
2022/01/29 19:37:47;;;;;;;18.80;3.25;;;;;;;5.79;100.00;101771.69;10362853;28;20084;-72
2022/01/29 19:42:48;;;;;;;25.77;3.67;;;;;;;5.77;100.00;101789.31;10395565;28;20029;-72
2022/01/29 19:47:48;;;;;;;23.20;5.28;;;;;;;5.84;100.00;101801.97;10394542;28;20037;-72
2022/01/29 19:52:49;;;;;;;22.75;4.68;;;;;;;5.84;100.00;101823.00;10410781;28;20026;-73
2022/01/29 19:57:50;;;;;;;31.40;7.00;;;;;;;5.86;100.00;101826.38;10412489;28;20033;-74
2022/01/29 20:02:51;;;;;;;38.20;5.40;;;;;;;5.88;100.00;101839.84;10424517;28;20050;-73
2022/01/29 20:07:52;;;;;;;28.45;5.25;;;;;;;5.92;100.00;101825.56;10396757;28;20034;-73
2022/01/29 20:12:53;;;;;;;24.33;4.20;;;;;;;5.97;100.00;101852.34;10411949;28;20036;-74
2022/01/29 20:17:54;;;;;;;27.92;5.30;;;;;;;5.93;100.00;101840.06;10411796;28;20037;-73
2022/01/29 20:22:54;;;;;;;27.05;4.45;;;;;;;5.83;100.00;101830.34;10391742;28;20044;-72
2022/01/29 20:27:55;;;;;;;32.28;5.45;;;;;;;5.81;100.00;101854.31;10343237;28;20041;-74
2022/01/29 20:32:55;;;;;;;23.33;4.20;;;;;;;5.71;100.00;101861.16;10371970;28;20034;-74
2022/01/29 20:37:56;;;;;;;26.65;4.60;;;;;;;5.74;100.00;101877.16;10371124;28;20037;-73
2022/01/29 20:42:56;;;;;;;18.55;5.18;;;;;;;5.80;100.00;101869.00;10371044;28;20034;-73
2022/01/29 20:47:57;;;;;;;29.83;5.75;;;;;;;5.83;100.00;101881.44;10355506;28;20030;-73
2022/01/29 20:52:57;;;;;;;22.15;4.40;;;;;;;5.82;100.00;101864.19;10373191;28;20030;-76
2022/01/29 20:57:58;;;;;;;21.75;6.07;;;;;;;5.69;100.00;101858.63;10409690;28;20470;-74
2022/01/29 21:03:01;;;;;;;24.05;4.38;;;;;;;5.76;100.00;101877.78;10395151;28;20072;-74
2022/01/29 21:08:01;;;;;;;28.83;6.20;;;;;;;5.90;100.00;101886.94;10362540;28;20121;-74
2022/01/29 21:13:02;;;;;;;29.00;5.43;;;;;;;5.98;100.00;101889.56;10375641;28;20084;-74
2022/01/29 21:18:02;;;;;;;25.50;5.03;;;;;;;6.07;100.00;101886.47;10378995;28;20056;-74
2022/01/29 21:23:03;;;;;;;26.92;5.25;;;;;;;6.02;100.00;101891.69;10394408;28;20026;-74
2022/01/29 21:28:03;;;;;;;25.85;5.25;;;;;;;6.01;100.00;101879.06;10388218;28;20088;-75
2022/01/29 21:33:07;;;;;;;30.73;5.22;;;;;;;6.02;100.00;101896.34;10383152;28;20025;-74
2022/01/29 21:38:16;;;;;;;34.50;7.07;;;;;;;5.96;100.00;101891.66;10424280;28;20063;-74
2022/01/29 21:43:17;;;;;;;34.35;6.93;;;;;;;5.99;100.00;101907.66;10411436;28;20036;-73
2022/01/29 21:48:17;;;;;;;28.70;8.02;;;;;;;5.93;100.00;101943.94;10427312;28;20113;-75
2022/01/29 21:53:18;;;;;;;29.33;6.03;;;;;;;5.91;100.00;101943.28;10443395;28;20032;-73
2022/01/29 21:58:18;;;;;;;33.80;6.40;;;;;;;5.89;100.00;101926.25;10443348;28;20079;-73
2022/01/29 22:03:19;;;;;;;33.58;5.53;;;;;;;5.88;100.00;101927.31;10419410;28;20049;-73
2022/01/29 22:08:19;;;;;;;24.50;5.57;;;;;;;5.90;100.00;101926.06;10424157;28;20056;-73
2022/01/29 22:13:20;;;;;;;31.52;8.70;;;;;;;5.92;100.00;101939.53;10426584;28;20036;-72
2022/01/29 22:18:21;;;;;;;27.48;5.65;;;;;;;5.89;100.00;101934.44;10451533;28;20067;-72
2022/01/29 22:23:21;;;;;;;30.27;6.53;;;;;;;5.83;100.00;101915.06;10434265;28;20028;-74
2022/01/29 22:28:22;;;;;;;26.73;4.82;;;;;;;5.71;100.00;101946.69;10402673;28;20021;-73
2022/01/29 22:33:25;;;;;;;21.30;5.90;;;;;;;5.76;100.00;101941.47;10441241;28;20033;-73
2022/01/29 22:38:27;;;;;;;35.63;7.97;;;;;;;5.82;100.00;101935.22;10419808;28;20097;-73
2022/01/29 22:43:27;;;;;;;38.28;5.65;;;;;;;5.71;100.00;101938.50;10374494;28;20040;-74
2022/01/29 22:48:28;;;;;;;25.77;4.95;;;;;;;5.81;100.00;101949.13;10392036;28;20037;-74
2022/01/29 22:53:28;;;;;;;27.85;6.43;;;;;;;5.90;100.00;101971.69;10375761;28;20026;-75
2022/01/29 22:58:29;;;;;;;33.85;7.45;;;;;;;5.92;100.00;101977.78;10358928;28;20046;-75